sensor_id;sensor_type;location;lat;lon;timestamp;pressure;altitude;pressure_sealevel;temperature;humidity
23176;BME280;19910;42.652;23.332;2023-02-01T00:00:03;94722.34;;;0.99;80.86
23176;BME280;19910;42.652;23.332;2023-02-01T00:02:30;94714.88;;;1.01;80.68
23176;BME280;19910;42.652;23.332;2023-02-01T00:04:57;94724.75;;;1.05;80.88
23176;BME280;19910;42.652;23.332;2023-02-01T00:07:24;94719.69;;;1.04;80.62
23176;BME280;19910;42.652;23.332;2023-02-01T00:09:50;94727.69;;;0.99;80.99
23176;BME280;19910;42.652;23.332;2023-02-01T00:12:19;94725.03;;;1.04;80.80
23176;BME280;19910;42.652;23.332;2023-02-01T00:14:46;94738.34;;;0.99;80.67
23176;BME280;19910;42.652;23.332;2023-02-01T00:17:14;94720.50;;;0.94;80.86
23176;BME280;19910;42.652;23.332;2023-02-01T00:19:40;94726.63;;;0.95;80.42
23176;BME280;19910;42.652;23.332;2023-02-01T00:22:07;94726.63;;;0.95;80.15
23176;BME280;19910;42.652;23.332;2023-02-01T00:24:34;94723.41;;;0.88;80.47
23176;BME280;19910;42.652;23.332;2023-02-01T00:27:01;94712.72;;;0.83;80.58
23176;BME280;19910;42.652;23.332;2023-02-01T00:29:29;94718.63;;;0.95;79.99
23176;BME280;19910;42.652;23.332;2023-02-01T00:31:55;94719.69;;;0.94;80.18
23176;BME280;19910;42.652;23.332;2023-02-01T00:34:22;94719.13;;;0.97;79.93
23176;BME280;19910;42.652;23.332;2023-02-01T00:36:49;94718.34;;;0.91;79.15
23176;BME280;19910;42.652;23.332;2023-02-01T00:39:16;94709.81;;;0.94;78.72
23176;BME280;19910;42.652;23.332;2023-02-01T00:41:43;94712.47;;;0.89;78.81
23176;BME280;19910;42.652;23.332;2023-02-01T00:44:10;94712.72;;;0.83;78.83
23176;BME280;19910;42.652;23.332;2023-02-01T00:46:38;94719.41;;;0.80;78.44
23176;BME280;19910;42.652;23.332;2023-02-01T00:49:05;94718.34;;;0.81;77.99
23176;BME280;19910;42.652;23.332;2023-02-01T00:51:33;94719.13;;;0.77;78.50
23176;BME280;19910;42.652;23.332;2023-02-01T00:54:00;94710.06;;;0.78;77.89
23176;BME280;19910;42.652;23.332;2023-02-01T00:56:27;94708.19;;;0.78;77.38
23176;BME280;19910;42.652;23.332;2023-02-01T00:58:53;94704.44;;;0.74;77.60
23176;BME280;19910;42.652;23.332;2023-02-01T01:01:22;94701.50;;;0.65;77.50
23176;BME280;19910;42.652;23.332;2023-02-01T01:03:55;94711.63;;;0.68;77.87
23176;BME280;19910;42.652;23.332;2023-02-01T01:06:26;94706.84;;;0.76;77.24
23176;BME280;19910;42.652;23.332;2023-02-01T01:08:53;94710.06;;;0.78;77.17
23176;BME280;19910;42.652;23.332;2023-02-01T01:11:23;94699.94;;;0.80;76.06
23176;BME280;19910;42.652;23.332;2023-02-01T01:13:52;94707.38;;;0.83;76.73
23176;BME280;19910;42.652;23.332;2023-02-01T01:16:20;94706.88;;;0.86;75.99
23176;BME280;19910;42.652;23.332;2023-02-01T01:19:06;94703.66;;;0.84;76.07
23176;BME280;19910;42.652;23.332;2023-02-01T01:21:35;94709.53;;;0.86;75.55
23176;BME280;19910;42.652;23.332;2023-02-01T01:24:02;94704.22;;;0.81;74.89
23176;BME280;19910;42.652;23.332;2023-02-01T01:26:29;94703.16;;;0.82;75.57
23176;BME280;19910;42.652;23.332;2023-02-01T01:28:57;94703.13;;;0.77;75.29
23176;BME280;19910;42.652;23.332;2023-02-01T01:31:26;94690.88;;;0.86;75.12
23176;BME280;19910;42.652;23.332;2023-02-01T01:33:54;94701.00;;;0.89;74.45
23176;BME280;19910;42.652;23.332;2023-02-01T01:36:22;94704.22;;;0.91;73.62
23176;BME280;19910;42.652;23.332;2023-02-01T01:38:50;94711.16;;;0.92;73.61
23176;BME280;19910;42.652;23.332;2023-02-01T01:41:20;94711.69;;;0.89;72.96
23176;BME280;19910;42.652;23.332;2023-02-01T01:43:50;94723.38;;;0.83;73.19
23176;BME280;19910;42.652;23.332;2023-02-01T01:46:19;94713.78;;;0.77;73.07
23176;BME280;19910;42.652;23.332;2023-02-01T01:48:48;94724.97;;;0.74;73.33
23176;BME280;19910;42.652;23.332;2023-02-01T01:51:20;94720.72;;;0.78;73.40
23176;BME280;19910;42.652;23.332;2023-02-01T01:53:58;94708.44;;;0.66;73.73
23176;BME280;19910;42.652;23.332;2023-02-01T01:56:32;94718.03;;;0.62;73.83
23176;BME280;19910;42.652;23.332;2023-02-01T01:59:03;94714.53;;;0.57;73.96
23176;BME280;19910;42.652;23.332;2023-02-01T02:01:31;94713.72;;;0.46;74.21
23176;BME280;19910;42.652;23.332;2023-02-01T02:03:59;94714.22;;;0.33;74.61
23176;BME280;19910;42.652;23.332;2023-02-01T02:06:32;94715.25;;;0.22;75.28
23176;BME280;19910;42.652;23.332;2023-02-01T02:09:03;94712.00;;;0.15;75.38
23176;BME280;19910;42.652;23.332;2023-02-01T02:11:30;94709.34;;;0.10;75.75
23176;BME280;19910;42.652;23.332;2023-02-01T02:13:57;94715.44;;;0.00;76.24
23176;BME280;19910;42.652;23.332;2023-02-01T02:16:40;94713.50;;;-0.10;76.39
23176;BME280;19910;42.652;23.332;2023-02-01T02:22:48;94699.88;;;-0.13;76.65
23176;BME280;19910;42.652;23.332;2023-02-01T02:25:56;94692.72;;;-0.13;77.21
23176;BME280;19910;42.652;23.332;2023-02-01T02:28:47;94701.16;;;-0.26;76.87
23176;BME280;19910;42.652;23.332;2023-02-01T02:31:59;94704.69;;;-0.10;76.41
23176;BME280;19910;42.652;23.332;2023-02-01T02:34:34;94699.13;;;-0.14;76.27
23176;BME280;19910;42.652;23.332;2023-02-01T02:37:12;94697.50;;;-0.15;76.29
23176;BME280;19910;42.652;23.332;2023-02-01T02:39:53;94693.56;;;-0.02;75.73
23176;BME280;19910;42.652;23.332;2023-02-01T02:42:28;94705.63;;;0.11;75.16
23176;BME280;19910;42.652;23.332;2023-02-01T02:45:17;94697.13;;;0.29;74.56
23176;BME280;19910;42.652;23.332;2023-02-01T02:48:11;94700.34;;;0.31;74.20
23176;BME280;19910;42.652;23.332;2023-02-01T02:50:45;94702.53;;;0.39;73.99
23176;BME280;19910;42.652;23.332;2023-02-01T02:53:35;94696.13;;;0.45;73.33
23176;BME280;19910;42.652;23.332;2023-02-01T02:56:22;94693.47;;;0.45;73.79
23176;BME280;19910;42.652;23.332;2023-02-01T02:59:12;94695.59;;;0.38;73.16
23176;BME280;19910;42.652;23.332;2023-02-01T03:01:57;94692.41;;;0.46;72.75
23176;BME280;19910;42.652;23.332;2023-02-01T03:04:41;94695.59;;;0.48;72.88
23176;BME280;19910;42.652;23.332;2023-02-01T03:07:13;94696.69;;;0.57;72.32
23176;BME280;19910;42.652;23.332;2023-02-01T03:09:42;94694.56;;;0.54;72.11
23176;BME280;19910;42.652;23.332;2023-02-01T03:12:12;94704.69;;;0.57;71.24
23176;BME280;19910;42.652;23.332;2023-02-01T03:15:03;94709.50;;;0.60;72.10
23176;BME280;19910;42.652;23.332;2023-02-01T03:17:37;94712.16;;;0.60;71.77
23176;BME280;19910;42.652;23.332;2023-02-01T03:20:07;94716.69;;;0.60;70.92
23176;BME280;19910;42.652;23.332;2023-02-01T03:22:41;94710.28;;;0.61;71.60
23176;BME280;19910;42.652;23.332;2023-02-01T03:25:13;94723.59;;;0.56;71.55
23176;BME280;19910;42.652;23.332;2023-02-01T03:27:43;94724.13;;;0.53;72.15
23176;BME280;19910;42.652;23.332;2023-02-01T03:30:17;94716.91;;;0.48;72.38
23176;BME280;19910;42.652;23.332;2023-02-01T03:32:47;94721.16;;;0.44;72.92
23176;BME280;19910;42.652;23.332;2023-02-01T03:35:28;94719.56;;;0.43;72.76
23176;BME280;19910;42.652;23.332;2023-02-01T03:38:02;94729.69;;;0.36;72.84
23176;BME280;19910;42.652;23.332;2023-02-01T03:40:33;94732.91;;;0.48;72.64
23176;BME280;19910;42.652;23.332;2023-02-01T03:43:02;94715.84;;;0.44;72.96
23176;BME280;19910;42.652;23.332;2023-02-01T03:45:34;94709.41;;;0.35;73.37
23176;BME280;19910;42.652;23.332;2023-02-01T03:48:05;94717.72;;;0.49;73.48
23176;BME280;19910;42.652;23.332;2023-02-01T03:50:33;94718.53;;;0.49;72.96
23176;BME280;19910;42.652;23.332;2023-02-01T03:53:05;94720.13;;;0.50;72.52
23176;BME280;19910;42.652;23.332;2023-02-01T03:55:34;94716.94;;;0.58;72.67
23176;BME280;19910;42.652;23.332;2023-02-01T03:58:06;94715.34;;;0.57;72.07
23176;BME280;19910;42.652;23.332;2023-02-01T04:00:34;94718.56;;;0.54;72.45
23176;BME280;19910;42.652;23.332;2023-02-01T04:03:02;94726.00;;;0.57;72.35
23176;BME280;19910;42.652;23.332;2023-02-01T04:05:30;94728.16;;;0.65;72.53
23176;BME280;19910;42.652;23.332;2023-02-01T04:07:57;94722.84;;;0.65;72.42
23176;BME280;19910;42.652;23.332;2023-02-01T04:10:25;94716.44;;;0.71;72.55
23176;BME280;19910;42.652;23.332;2023-02-01T04:12:52;94716.97;;;0.68;72.91
23176;BME280;19910;42.652;23.332;2023-02-01T04:15:19;94706.84;;;0.76;73.08
23176;BME280;19910;42.652;23.332;2023-02-01T04:17:46;94714.88;;;0.81;73.01
23176;BME280;19910;42.652;23.332;2023-02-01T04:20:13;94728.47;;;0.89;72.92
23176;BME280;19910;42.652;23.332;2023-02-01T04:22:39;94730.59;;;0.77;73.18
23176;BME280;19910;42.652;23.332;2023-02-01T04:25:07;94730.88;;;0.81;73.73
23176;BME280;19910;42.652;23.332;2023-02-01T04:27:35;94725.25;;;0.87;74.02
23176;BME280;19910;42.652;23.332;2023-02-01T04:30:03;94723.94;;;0.90;74.34
23176;BME280;19910;42.652;23.332;2023-02-01T04:32:30;94726.34;;;0.86;74.08
23176;BME280;19910;42.652;23.332;2023-02-01T04:34:56;94729.81;;;0.82;74.24
23176;BME280;19910;42.652;23.332;2023-02-01T04:37:23;94729.00;;;0.86;74.81
23176;BME280;19910;42.652;23.332;2023-02-01T04:39:50;94723.38;;;0.83;74.81
23176;BME280;19910;42.652;23.332;2023-02-01T04:42:17;94722.88;;;0.86;74.96
23176;BME280;19910;42.652;23.332;2023-02-01T04:44:45;94728.75;;;1.03;76.34
23176;BME280;19910;42.652;23.332;2023-02-01T04:47:11;94730.06;;;0.90;75.21
23176;BME280;19910;42.652;23.332;2023-02-01T04:49:39;94739.94;;;0.90;75.32
23176;BME280;19910;42.652;23.332;2023-02-01T04:52:06;94732.19;;;0.88;75.81
23176;BME280;19910;42.652;23.332;2023-02-01T04:54:33;94744.75;;;0.93;75.58
23176;BME280;19910;42.652;23.332;2023-02-01T04:57:00;94745.28;;;1.00;75.86
23176;BME280;19910;42.652;23.332;2023-02-01T04:59:27;94750.91;;;1.03;75.95
23176;BME280;19910;42.652;23.332;2023-02-01T05:01:55;94752.75;;;1.03;75.97
23176;BME280;19910;42.652;23.332;2023-02-01T05:04:22;94749.53;;;0.96;76.23
23176;BME280;19910;42.652;23.332;2023-02-01T05:06:49;94756.22;;;1.03;76.33
23176;BME280;19910;42.652;23.332;2023-02-01T05:09:15;94754.63;;;1.02;75.89
23176;BME280;19910;42.652;23.332;2023-02-01T05:11:42;94756.75;;;1.11;76.44
23176;BME280;19910;42.652;23.332;2023-02-01T05:14:26;94769.28;;;1.10;76.48
23176;BME280;19910;42.652;23.332;2023-02-01T05:16:54;94766.38;;;1.12;76.57
23176;BME280;19910;42.652;23.332;2023-02-01T05:19:21;94762.91;;;1.11;76.42
23176;BME280;19910;42.652;23.332;2023-02-01T05:21:48;94758.13;;;1.18;76.34
23176;BME280;19910;42.652;23.332;2023-02-01T05:24:14;94763.44;;;1.18;76.17
23176;BME280;19910;42.652;23.332;2023-02-01T05:26:45;94754.66;;;1.18;76.21
23176;BME280;19910;42.652;23.332;2023-02-01T05:29:12;94764.78;;;1.16;76.71
23176;BME280;19910;42.652;23.332;2023-02-01T05:31:39;94752.78;;;1.18;76.67
23176;BME280;19910;42.652;23.332;2023-02-01T05:34:08;94755.44;;;1.23;76.67
23176;BME280;19910;42.652;23.332;2023-02-01T05:36:34;94765.59;;;1.26;76.86
23176;BME280;19910;42.652;23.332;2023-02-01T05:39:01;94766.38;;;1.27;76.77
23176;BME280;19910;42.652;23.332;2023-02-01T05:41:28;94760.78;;;1.23;76.82
23176;BME280;19910;42.652;23.332;2023-02-01T05:43:55;94757.06;;;1.34;76.56
23176;BME280;19910;42.652;23.332;2023-02-01T05:46:22;94760.81;;;1.33;76.07
23176;BME280;19910;42.652;23.332;2023-02-01T05:48:57;94760.53;;;1.40;75.98
23176;BME280;19910;42.652;23.332;2023-02-01T05:51:26;94751.16;;;1.37;75.59
23176;BME280;19910;42.652;23.332;2023-02-01T05:53:52;94753.84;;;1.42;75.37
23176;BME280;19910;42.652;23.332;2023-02-01T05:56:19;94752.25;;;1.52;75.00
23176;BME280;19910;42.652;23.332;2023-02-01T05:58:46;94749.59;;;1.57;74.95
23176;BME280;19910;42.652;23.332;2023-02-01T06:01:13;94753.25;;;1.96;77.22
23176;BME280;19910;42.652;23.332;2023-02-01T06:03:39;94748.97;;;2.75;84.09
23176;BME280;19910;42.652;23.332;2023-02-01T06:06:06;94745.38;;;2.45;77.81
23176;BME280;19910;42.652;23.332;2023-02-01T06:08:34;94766.78;;;2.35;73.76
23176;BME280;19910;42.652;23.332;2023-02-01T06:11:03;94762.03;;;2.12;71.93
23176;BME280;19910;42.652;23.332;2023-02-01T06:13:31;94772.00;;;1.76;73.33
23176;BME280;19910;42.652;23.332;2023-02-01T06:15:58;94779.47;;;1.69;73.38
23176;BME280;19910;42.652;23.332;2023-02-01T06:18:25;94768.53;;;1.75;73.39
23176;BME280;19910;42.652;23.332;2023-02-01T06:20:53;94767.72;;;1.75;73.44
23176;BME280;19910;42.652;23.332;2023-02-01T06:23:20;94774.13;;;1.69;72.88
23176;BME280;19910;42.652;23.332;2023-02-01T06:25:50;94772.53;;;1.68;72.76
23176;BME280;19910;42.652;23.332;2023-02-01T06:28:17;94784.81;;;1.69;72.68
23176;BME280;19910;42.652;23.332;2023-02-01T06:30:44;94781.84;;;1.81;72.88
23176;BME280;19910;42.652;23.332;2023-02-01T06:33:14;94784.78;;;1.79;72.42
23176;BME280;19910;42.652;23.332;2023-02-01T06:35:41;94785.34;;;1.76;72.78
23176;BME280;19910;42.652;23.332;2023-02-01T06:38:09;94779.44;;;1.79;72.34
23176;BME280;19910;42.652;23.332;2023-02-01T06:40:38;94776.28;;;1.77;71.99
23176;BME280;19910;42.652;23.332;2023-02-01T06:43:07;94776.53;;;1.91;71.43
23176;BME280;19910;42.652;23.332;2023-02-01T06:45:34;94785.31;;;1.96;70.87
23176;BME280;19910;42.652;23.332;2023-02-01T06:48:01;94776.50;;;2.01;70.79
23176;BME280;19910;42.652;23.332;2023-02-01T06:50:28;94791.69;;;2.05;70.41
23176;BME280;19910;42.652;23.332;2023-02-01T06:52:55;94799.19;;;2.08;70.27
23176;BME280;19910;42.652;23.332;2023-02-01T06:55:24;94807.97;;;2.19;70.68
23176;BME280;19910;42.652;23.332;2023-02-01T06:57:53;94809.06;;;2.18;70.18
23176;BME280;19910;42.652;23.332;2023-02-01T07:00:22;94807.19;;;2.13;70.00
23176;BME280;19910;42.652;23.332;2023-02-01T07:02:49;94809.84;;;2.24;70.14
23176;BME280;19910;42.652;23.332;2023-02-01T07:05:16;94809.88;;;2.19;69.70
23176;BME280;19910;42.652;23.332;2023-02-01T07:07:43;94829.09;;;2.21;69.62
23176;BME280;19910;42.652;23.332;2023-02-01T07:10:19;94827.22;;;2.21;69.30
23176;BME280;19910;42.652;23.332;2023-02-01T07:12:46;94830.94;;;2.20;69.82
23176;BME280;19910;42.652;23.332;2023-02-01T07:15:13;94823.75;;;2.31;69.43
23176;BME280;19910;42.652;23.332;2023-02-01T07:17:41;94822.13;;;2.25;68.89
23176;BME280;19910;42.652;23.332;2023-02-01T07:20:10;94834.44;;;2.31;69.09
23176;BME280;19910;42.652;23.332;2023-02-01T07:22:37;94824.78;;;2.40;69.10
23176;BME280;19910;42.652;23.332;2023-02-01T07:25:04;94832.78;;;2.40;68.97
23176;BME280;19910;42.652;23.332;2023-02-01T07:27:33;94832.78;;;2.40;68.92
23176;BME280;19910;42.652;23.332;2023-02-01T07:30:00;94839.72;;;2.51;68.98
23176;BME280;19910;42.652;23.332;2023-02-01T07:32:27;94834.91;;;2.53;68.72
23176;BME280;19910;42.652;23.332;2023-02-01T07:34:56;94838.09;;;2.50;68.63
23176;BME280;19910;42.652;23.332;2023-02-01T07:37:23;94850.94;;;2.48;68.25
23176;BME280;19910;42.652;23.332;2023-02-01T07:39:50;94835.97;;;2.47;68.59
23176;BME280;19910;42.652;23.332;2023-02-01T07:42:17;94841.31;;;2.57;67.86
23176;BME280;19910;42.652;23.332;2023-02-01T07:44:44;94832.19;;;2.63;67.70
23176;BME280;19910;42.652;23.332;2023-02-01T07:47:11;94851.16;;;2.62;67.84
23176;BME280;19910;42.652;23.332;2023-02-01T07:49:37;94854.66;;;2.62;67.40
23176;BME280;19910;42.652;23.332;2023-02-01T07:52:06;94849.28;;;2.67;67.06
23176;BME280;19910;42.652;23.332;2023-02-01T07:54:32;94854.34;;;2.74;67.19
23176;BME280;19910;42.652;23.332;2023-02-01T07:56:59;94854.66;;;2.67;66.99
23176;BME280;19910;42.652;23.332;2023-02-01T07:59:26;94859.94;;;2.77;67.01
23176;BME280;19910;42.652;23.332;2023-02-01T08:01:53;94852.94;;;2.97;66.86
23176;BME280;19910;42.652;23.332;2023-02-01T08:04:18;94865.25;;;2.88;66.23
23176;BME280;19910;42.652;23.332;2023-02-01T08:06:45;94867.94;;;2.93;66.23
23176;BME280;19910;42.652;23.332;2023-02-01T08:09:13;94864.66;;;3.06;65.76
23176;BME280;19910;42.652;23.332;2023-02-01T08:11:40;94877.78;;;3.02;65.34
23176;BME280;19910;42.652;23.332;2023-02-01T08:14:07;94863.84;;;3.10;66.63
23176;BME280;19910;42.652;23.332;2023-02-01T08:16:34;94855.00;;;3.10;65.40
23176;BME280;19910;42.652;23.332;2023-02-01T08:19:04;94866.28;;;3.02;65.58
23176;BME280;19910;42.652;23.332;2023-02-01T08:21:34;94863.59;;;3.07;65.23
23176;BME280;19910;42.652;23.332;2023-02-01T08:24:06;94859.78;;;3.18;64.77
23176;BME280;19910;42.652;23.332;2023-02-01T08:26:36;94854.25;;;3.48;64.77
23176;BME280;19910;42.652;23.332;2023-02-01T08:29:04;94852.41;;;3.44;64.03
23176;BME280;19910;42.652;23.332;2023-02-01T08:31:32;94872.53;;;3.41;64.08
23176;BME280;19910;42.652;23.332;2023-02-01T08:34:00;94852.66;;;3.47;63.72
23176;BME280;19910;42.652;23.332;2023-02-01T08:36:30;94865.22;;;3.52;63.64
23176;BME280;19910;42.652;23.332;2023-02-01T08:38:57;94859.34;;;3.55;64.05
23176;BME280;19910;42.652;23.332;2023-02-01T08:41:26;94862.00;;;3.55;64.11
23176;BME280;19910;42.652;23.332;2023-02-01T08:43:55;94852.31;;;3.59;64.59
23176;BME280;19910;42.652;23.332;2023-02-01T08:46:22;94859.88;;;3.52;63.82
23176;BME280;19910;42.652;23.332;2023-02-01T08:48:49;94853.75;;;3.85;64.23
23176;BME280;19910;42.652;23.332;2023-02-01T08:51:18;94850.69;;;3.97;62.57
23176;BME280;19910;42.652;23.332;2023-02-01T08:53:45;94854.44;;;4.30;62.46
23176;BME280;19910;42.652;23.332;2023-02-01T08:56:14;94843.59;;;4.11;61.71
23176;BME280;19910;42.652;23.332;2023-02-01T08:58:41;94847.38;;;4.39;61.40
23176;BME280;19910;42.652;23.332;2023-02-01T09:01:10;94845.34;;;4.55;60.17
23176;BME280;19910;42.652;23.332;2023-02-01T09:03:38;94843.19;;;4.81;60.22
23176;BME280;19910;42.652;23.332;2023-02-01T09:06:07;94850.00;;;4.73;59.11
23176;BME280;19910;42.652;23.332;2023-02-01T09:08:35;94857.78;;;4.46;60.27
23176;BME280;19910;42.652;23.332;2023-02-01T09:11:04;94860.19;;;4.18;61.93
23176;BME280;19910;42.652;23.332;2023-02-01T09:13:31;94856.31;;;4.29;61.95
23176;BME280;19910;42.652;23.332;2023-02-01T09:15:59;94849.78;;;4.41;61.27
23176;BME280;19910;42.652;23.332;2023-02-01T09:18:27;94848.13;;;4.45;60.89
23176;BME280;19910;42.652;23.332;2023-02-01T09:20:54;94850.25;;;4.48;60.33
23176;BME280;19910;42.652;23.332;2023-02-01T09:23:21;94848.75;;;4.89;59.49
23176;BME280;19910;42.652;23.332;2023-02-01T09:25:48;94846.50;;;4.96;59.69
23176;BME280;19910;42.652;23.332;2023-02-01T09:28:16;94856.09;;;5.03;59.87
23176;BME280;19910;42.652;23.332;2023-02-01T09:30:43;94854.56;;;4.73;60.13
23176;BME280;19910;42.652;23.332;2023-02-01T09:33:10;94854.13;;;5.32;59.67
23176;BME280;19910;42.652;23.332;2023-02-01T09:35:38;94843.59;;;5.73;58.10
23176;BME280;19910;42.652;23.332;2023-02-01T09:38:05;94829.94;;;5.32;58.06
23176;BME280;19910;42.652;23.332;2023-02-01T09:40:33;94846.72;;;5.00;57.94
23176;BME280;19910;42.652;23.332;2023-02-01T09:43:13;94835.22;;;5.37;58.11
23176;BME280;19910;42.652;23.332;2023-02-01T09:45:50;94832.19;;;5.62;58.07
23176;BME280;19910;42.652;23.332;2023-02-01T09:48:21;94833.44;;;5.70;56.70
23176;BME280;19910;42.652;23.332;2023-02-01T09:50:55;94835.03;;;5.90;57.18
23176;BME280;19910;42.652;23.332;2023-02-01T09:53:28;94817.66;;;6.01;55.46
23176;BME280;19910;42.652;23.332;2023-02-01T09:55:59;94809.94;;;6.13;55.05
23176;BME280;19910;42.652;23.332;2023-02-01T09:58:31;94810.75;;;5.95;56.19
23176;BME280;19910;42.652;23.332;2023-02-01T10:01:01;94811.09;;;6.07;54.87
23176;BME280;19910;42.652;23.332;2023-02-01T10:03:30;94807.13;;;5.67;55.99
23176;BME280;19910;42.652;23.332;2023-02-01T10:06:10;94807.00;;;5.58;55.91
23176;BME280;19910;42.652;23.332;2023-02-01T10:09:01;94806.78;;;5.36;57.16
23176;BME280;19910;42.652;23.332;2023-02-01T10:11:39;94804.09;;;5.74;55.28
23176;BME280;19910;42.652;23.332;2023-02-01T10:14:26;94794.16;;;6.06;55.75
23176;BME280;19910;42.652;23.332;2023-02-01T10:17:01;94788.81;;;6.20;54.60
23176;BME280;19910;42.652;23.332;2023-02-01T10:19:39;94787.13;;;6.24;55.00
23176;BME280;19910;42.652;23.332;2023-02-01T10:22:09;94786.72;;;5.85;56.05
23176;BME280;19910;42.652;23.332;2023-02-01T10:24:41;94791.47;;;5.88;55.16
23176;BME280;19910;42.652;23.332;2023-02-01T10:27:18;94784.03;;;5.85;54.86
23176;BME280;19910;42.652;23.332;2023-02-01T10:29:49;94772.13;;;5.72;55.59
23176;BME280;19910;42.652;23.332;2023-02-01T10:32:21;94773.16;;;6.09;55.41
23176;BME280;19910;42.652;23.332;2023-02-01T10:34:52;94761.69;;;6.03;55.95
23176;BME280;19910;42.652;23.332;2023-02-01T10:37:29;94756.59;;;6.01;56.43
23176;BME280;19910;42.652;23.332;2023-02-01T10:39:59;94754.19;;;5.67;55.29
23176;BME280;19910;42.652;23.332;2023-02-01T10:42:28;94749.94;;;5.99;55.31
23176;BME280;19910;42.652;23.332;2023-02-01T10:44:57;94764.00;;;6.10;55.29
23176;BME280;19910;42.652;23.332;2023-02-01T10:47:26;94751.03;;;5.98;54.36
23176;BME280;19910;42.652;23.332;2023-02-01T10:49:56;94758.41;;;5.74;55.48
23176;BME280;19910;42.652;23.332;2023-02-01T10:52:37;94756.09;;;5.48;56.19
23176;BME280;19910;42.652;23.332;2023-02-01T10:55:26;94750.59;;;5.21;56.48
23176;BME280;19910;42.652;23.332;2023-02-01T10:57:57;94754.34;;;5.20;57.08
23176;BME280;19910;42.652;23.332;2023-02-01T11:00:25;94750.53;;;5.26;56.89
23176;BME280;19910;42.652;23.332;2023-02-01T11:02:53;94759.59;;;5.30;56.92
23176;BME280;19910;42.652;23.332;2023-02-01T11:05:21;94761.63;;;5.38;56.68
23176;BME280;19910;42.652;23.332;2023-02-01T11:07:54;94756.09;;;5.48;56.31
23176;BME280;19910;42.652;23.332;2023-02-01T11:10:35;94742.78;;;6.08;55.89
23176;BME280;19910;42.652;23.332;2023-02-01T11:13:04;94746.78;;;6.24;54.99
23176;BME280;19910;42.652;23.332;2023-02-01T11:15:31;94744.91;;;6.38;54.64
23176;BME280;19910;42.652;23.332;2023-02-01T11:18:14;94747.06;;;6.09;54.36
23176;BME280;19910;42.652;23.332;2023-02-01T11:20:44;94742.78;;;6.08;54.00
23176;BME280;19910;42.652;23.332;2023-02-01T11:23:17;94742.97;;;5.98;54.83
23176;BME280;19910;42.652;23.332;2023-02-01T11:25:50;94744.88;;;5.79;55.42
23176;BME280;19910;42.652;23.332;2023-02-01T11:28:22;94725.47;;;6.14;54.93
23176;BME280;19910;42.652;23.332;2023-02-01T11:30:51;94715.81;;;5.81;55.36
23176;BME280;19910;42.652;23.332;2023-02-01T11:33:25;94714.28;;;6.07;55.47
23176;BME280;19910;42.652;23.332;2023-02-01T11:35:55;94713.28;;;6.17;54.87
23176;BME280;19910;42.652;23.332;2023-02-01T11:38:27;94722.59;;;6.24;55.47
23176;BME280;19910;42.652;23.332;2023-02-01T11:40:54;94726.66;;;6.08;55.00
23176;BME280;19910;42.652;23.332;2023-02-01T11:43:23;94729.41;;;6.03;54.69
23176;BME280;19910;42.652;23.332;2023-02-01T11:45:56;94713.25;;;5.89;56.08
23176;BME280;19910;42.652;23.332;2023-02-01T11:48:24;94723.56;;;5.82;55.30
23176;BME280;19910;42.652;23.332;2023-02-01T11:51:01;94710.91;;;6.15;56.54
23176;BME280;19910;42.652;23.332;2023-02-01T11:53:40;94712.31;;;5.99;54.76
23176;BME280;19910;42.652;23.332;2023-02-01T11:56:18;94706.31;;;6.29;55.64
23176;BME280;19910;42.652;23.332;2023-02-01T11:59:07;94696.88;;;6.18;54.00
23176;BME280;19910;42.652;23.332;2023-02-01T12:01:56;94689.31;;;6.20;54.95
23176;BME280;19910;42.652;23.332;2023-02-01T12:07:49;94678.75;;;6.37;54.45
23176;BME280;19910;42.652;23.332;2023-02-01T12:10:28;94690.09;;;6.07;54.80
23176;BME280;19910;42.652;23.332;2023-02-01T12:13:07;94691.19;;;6.06;55.96
23176;BME280;19910;42.652;23.332;2023-02-01T12:15:48;94687.03;;;6.14;56.07
23176;BME280;19910;42.652;23.332;2023-02-01T12:18:37;94698.38;;;6.11;54.73
23176;BME280;19910;42.652;23.332;2023-02-01T12:21:34;94676.38;;;5.76;55.01
23176;BME280;19910;42.652;23.332;2023-02-01T12:24:23;94677.66;;;5.79;55.59
23176;BME280;19910;42.652;23.332;2023-02-01T12:27:05;94670.38;;;5.98;57.56
23176;BME280;19910;42.652;23.332;2023-02-01T12:29:56;94689.19;;;5.98;55.67
23176;BME280;19910;42.652;23.332;2023-02-01T12:32:35;94684.13;;;6.10;56.19
23176;BME280;19910;42.652;23.332;2023-02-01T12:38:12;94684.66;;;5.80;55.59
23176;BME280;19910;42.652;23.332;2023-02-01T12:40:53;94697.25;;;5.98;55.21
23176;BME280;19910;42.652;23.332;2023-02-01T12:43:36;94701.94;;;6.06;55.61
23176;BME280;19910;42.652;23.332;2023-02-01T12:46:06;94695.97;;;6.09;55.02
23176;BME280;19910;42.652;23.332;2023-02-01T12:48:37;94688.13;;;6.26;55.29
23176;BME280;19910;42.652;23.332;2023-02-01T12:51:08;94682.84;;;6.35;54.95
23176;BME280;19910;42.652;23.332;2023-02-01T12:53:47;94688.28;;;6.43;54.82
23176;BME280;19910;42.652;23.332;2023-02-01T12:56:22;94689.81;;;6.50;54.55
23176;BME280;19910;42.652;23.332;2023-02-01T12:58:53;94694.47;;;6.58;53.65
23176;BME280;19910;42.652;23.332;2023-02-01T13:01:24;94688.69;;;6.64;53.30
23176;BME280;19910;42.652;23.332;2023-02-01T13:03:59;94682.97;;;6.93;53.09
23176;BME280;19910;42.652;23.332;2023-02-01T13:06:34;94682.00;;;6.62;52.43
23176;BME280;19910;42.652;23.332;2023-02-01T13:09:09;94679.72;;;6.69;53.40
23176;BME280;19910;42.652;23.332;2023-02-01T13:11:44;94675.84;;;6.20;53.79
23176;BME280;19910;42.652;23.332;2023-02-01T13:14:28;94685.50;;;6.49;54.25
23176;BME280;19910;42.652;23.332;2023-02-01T13:17:01;94675.19;;;6.28;53.83
23176;BME280;19910;42.652;23.332;2023-02-01T13:19:38;94685.22;;;6.36;53.14
23176;BME280;19910;42.652;23.332;2023-02-01T13:22:11;94676.88;;;6.24;52.44
23176;BME280;19910;42.652;23.332;2023-02-01T13:24:42;94682.03;;;6.21;53.23
23176;BME280;19910;42.652;23.332;2023-02-01T13:27:12;94679.03;;;6.22;52.85
23176;BME280;19910;42.652;23.332;2023-02-01T13:29:46;94677.53;;;6.43;53.12